sensor_id;sensor_type;location;lat;lon;timestamp;pressure;altitude;pressure_sealevel;temperature;humidity
19845;BME280;10083;51.038;7.012;2024-01-16T00:00:48;102805.00;;;2.56;100.00
19845;BME280;10083;51.038;7.012;2024-01-16T00:03:22;102804.00;;;2.54;100.00
19845;BME280;10083;51.038;7.012;2024-01-16T00:05:52;102801.69;;;2.61;100.00
19845;BME280;10083;51.038;7.012;2024-01-16T00:08:27;102802.13;;;2.72;100.00
19845;BME280;10083;51.038;7.012;2024-01-16T00:10:55;102792.28;;;2.68;100.00
19845;BME280;10083;51.038;7.012;2024-01-16T00:13:31;102793.09;;;2.67;100.00
19845;BME280;10083;51.038;7.012;2024-01-16T00:16:05;102798.41;;;2.67;100.00
19845;BME280;10083;51.038;7.012;2024-01-16T00:18:44;102808.78;;;2.62;100.00
19845;BME280;10083;51.038;7.012;2024-01-16T00:21:20;102807.22;;;2.67;100.00
19845;BME280;10083;51.038;7.012;2024-01-16T00:23:53;102810.06;;;2.72;100.00
19845;BME280;10083;51.038;7.012;2024-01-16T00:26:32;102805.16;;;2.81;100.00
19845;BME280;10083;51.038;7.012;2024-01-16T00:29:10;102797.31;;;2.83;100.00
19845;BME280;10083;51.038;7.012;2024-01-16T00:31:52;102797.31;;;2.83;100.00
19845;BME280;10083;51.038;7.012;2024-01-16T00:34:26;102797.53;;;2.89;100.00
19845;BME280;10083;51.038;7.012;2024-01-16T00:37:17;102789.28;;;2.81;100.00
19845;BME280;10083;51.038;7.012;2024-01-16T00:39:47;102796.78;;;2.70;100.00
19845;BME280;10083;51.038;7.012;2024-01-16T00:42:20;102788.19;;;2.76;100.00
19845;BME280;10083;51.038;7.012;2024-01-16T00:44:50;102786.53;;;2.78;100.00
19845;BME280;10083;51.038;7.012;2024-01-16T00:47:23;102782.91;;;2.76;100.00
19845;BME280;10083;51.038;7.012;2024-01-16T00:50:04;102790.25;;;2.83;100.00
19845;BME280;10083;51.038;7.012;2024-01-16T00:52:42;102799.38;;;2.69;100.00
19845;BME280;10083;51.038;7.012;2024-01-16T00:55:20;102799.69;;;2.77;100.00
19845;BME280;10083;51.038;7.012;2024-01-16T00:57:54;102799.22;;;2.66;100.00
19845;BME280;10083;51.038;7.012;2024-01-16T01:00:27;102791.75;;;2.77;100.00
19845;BME280;10083;51.038;7.012;2024-01-16T01:03:02;102800.84;;;2.62;100.00
19845;BME280;10083;51.038;7.012;2024-01-16T01:05:31;102795.75;;;2.67;100.00
19845;BME280;10083;51.038;7.012;2024-01-16T01:08:03;102800.13;;;2.66;100.00
19845;BME280;10083;51.038;7.012;2024-01-16T01:10:33;102809.41;;;2.57;100.00
19845;BME280;10083;51.038;7.012;2024-01-16T01:13:00;102803.13;;;2.74;100.00
19845;BME280;10083;51.038;7.012;2024-01-16T01:15:28;102806.84;;;2.58;100.00
19845;BME280;10083;51.038;7.012;2024-01-16T01:18:01;102817.19;;;2.52;100.00
19845;BME280;10083;51.038;7.012;2024-01-16T01:20:30;102809.16;;;2.71;100.00
19845;BME280;10083;51.038;7.012;2024-01-16T01:22:58;102828.59;;;2.51;100.00
19845;BME280;10083;51.038;7.012;2024-01-16T01:25:30;102822.53;;;2.54;100.00
19845;BME280;10083;51.038;7.012;2024-01-16T01:27:59;102822.38;;;2.71;100.00
19845;BME280;10083;51.038;7.012;2024-01-16T01:30:26;102830.84;;;2.63;100.00
19845;BME280;10083;51.038;7.012;2024-01-16T01:32:54;102821.03;;;2.81;100.00
19845;BME280;10083;51.038;7.012;2024-01-16T01:35:22;102843.53;;;2.71;100.00
19845;BME280;10083;51.038;7.012;2024-01-16T01:37:51;102824.84;;;2.67;100.00
19845;BME280;10083;51.038;7.012;2024-01-16T01:40:25;102832.25;;;2.76;100.00
19845;BME280;10083;51.038;7.012;2024-01-16T01:43:19;102826.94;;;2.74;100.00
19845;BME280;10083;51.038;7.012;2024-01-16T01:46:12;102839.56;;;2.60;100.00
19845;BME280;10083;51.038;7.012;2024-01-16T01:48:43;102836.84;;;2.59;100.00
19845;BME280;10083;51.038;7.012;2024-01-16T01:51:12;102843.22;;;2.64;100.00
19845;BME280;10083;51.038;7.012;2024-01-16T01:53:51;102843.63;;;2.73;100.00
19845;BME280;10083;51.038;7.012;2024-01-16T01:56:24;102844.78;;;2.59;100.00
19845;BME280;10083;51.038;7.012;2024-01-16T01:59:07;102837.31;;;2.69;100.00
19845;BME280;10083;51.038;7.012;2024-01-16T02:01:41;102835.94;;;2.58;100.00
19845;BME280;10083;51.038;7.012;2024-01-16T02:04:16;102839.59;;;2.62;100.00
19845;BME280;10083;51.038;7.012;2024-01-16T02:06:51;102840.97;;;2.73;100.00
19845;BME280;10083;51.038;7.012;2024-01-16T02:09:23;102836.25;;;2.66;100.00
19845;BME280;10083;51.038;7.012;2024-01-16T02:11:53;102850.97;;;2.59;100.00
19845;BME280;10083;51.038;7.012;2024-01-16T02:14:31;102843.47;;;2.49;100.00
19845;BME280;10083;51.038;7.012;2024-01-16T02:17:05;102839.50;;;2.59;100.00
19845;BME280;10083;51.038;7.012;2024-01-16T02:19:43;102832.47;;;2.59;100.00
19845;BME280;10083;51.038;7.012;2024-01-16T02:22:16;102825.66;;;2.66;100.00
19845;BME280;10083;51.038;7.012;2024-01-16T02:24:51;102833.69;;;2.67;100.00
19845;BME280;10083;51.038;7.012;2024-01-16T02:27:27;102823.00;;;2.64;100.00
19845;BME280;10083;51.038;7.012;2024-01-16T02:29:54;102829.56;;;2.74;100.00
19845;BME280;10083;51.038;7.012;2024-01-16T02:32:22;102846.78;;;2.64;100.00
19845;BME280;10083;51.038;7.012;2024-01-16T02:34:53;102846.00;;;2.67;100.00
19845;BME280;10083;51.038;7.012;2024-01-16T02:37:27;102852.31;;;2.50;100.00
19845;BME280;10083;51.038;7.012;2024-01-16T02:40:01;102828.72;;;2.54;100.00
19845;BME280;10083;51.038;7.012;2024-01-16T02:42:36;102840.06;;;2.52;100.00
19845;BME280;10083;51.038;7.012;2024-01-16T02:45:05;102833.09;;;2.54;100.00
19845;BME280;10083;51.038;7.012;2024-01-16T02:47:34;102846.94;;;2.48;100.00
19845;BME280;10083;51.038;7.012;2024-01-16T02:50:06;102841.84;;;2.53;100.00
19845;BME280;10083;51.038;7.012;2024-01-16T02:52:35;102848.91;;;2.52;100.00
19845;BME280;10083;51.038;7.012;2024-01-16T02:55:09;102860.81;;;2.43;100.00
19845;BME280;10083;51.038;7.012;2024-01-16T02:57:39;102858.53;;;2.31;100.00
19845;BME280;10083;51.038;7.012;2024-01-16T03:00:07;102866.22;;;2.25;100.00
19845;BME280;10083;51.038;7.012;2024-01-16T03:02:35;102861.38;;;2.36;100.00
19845;BME280;10083;51.038;7.012;2024-01-16T03:05:05;102869.88;;;2.48;100.00
19845;BME280;10083;51.038;7.012;2024-01-16T03:07:34;102866.31;;;2.47;100.00
19845;BME280;10083;51.038;7.012;2024-01-16T03:10:01;102870.63;;;2.45;100.00
19845;BME280;10083;51.038;7.012;2024-01-16T03:12:45;102861.16;;;2.50;100.00
19845;BME280;10083;51.038;7.012;2024-01-16T03:15:13;102869.88;;;2.48;100.00
19845;BME280;10083;51.038;7.012;2024-01-16T03:17:42;102860.13;;;2.47;100.00
19845;BME280;10083;51.038;7.012;2024-01-16T03:20:11;102869.66;;;2.43;100.00
19845;BME280;10083;51.038;7.012;2024-01-16T03:22:38;102854.03;;;2.49;100.00
19845;BME280;10083;51.038;7.012;2024-01-16T03:25:08;102853.34;;;2.53;100.00
19845;BME280;10083;51.038;7.012;2024-01-16T03:27:38;102854.56;;;2.41;100.00
19845;BME280;10083;51.038;7.012;2024-01-16T03:30:09;102862.16;;;2.33;100.00
19845;BME280;10083;51.038;7.012;2024-01-16T03:32:40;102855.13;;;2.34;100.00
19845;BME280;10083;51.038;7.012;2024-01-16T03:35:15;102852.03;;;2.44;100.00
19845;BME280;10083;51.038;7.012;2024-01-16T03:37:48;102858.03;;;2.40;100.00
19845;BME280;10083;51.038;7.012;2024-01-16T03:40:20;102857.19;;;2.41;100.00
19845;BME280;10083;51.038;7.012;2024-01-16T03:42:55;102861.53;;;2.39;100.00
19845;BME280;10083;51.038;7.012;2024-01-16T03:45:28;102858.88;;;2.39;100.00
19845;BME280;10083;51.038;7.012;2024-01-16T03:47:58;102846.00;;;2.46;100.00
19845;BME280;10083;51.038;7.012;2024-01-16T03:50:31;102852.03;;;2.44;100.00
19845;BME280;10083;51.038;7.012;2024-01-16T03:52:59;102852.38;;;2.51;100.00
19845;BME280;10083;51.038;7.012;2024-01-16T03:55:27;102853.66;;;2.40;100.00
19845;BME280;10083;51.038;7.012;2024-01-16T03:58:03;102842.13;;;2.59;100.00
19845;BME280;10083;51.038;7.012;2024-01-16T04:00:40;102859.72;;;2.38;100.00
19845;BME280;10083;51.038;7.012;2024-01-16T04:03:07;102836.66;;;2.54;100.00
19845;BME280;10083;51.038;7.012;2024-01-16T04:05:37;102845.16;;;2.47;100.00
19845;BME280;10083;51.038;7.012;2024-01-16T04:08:07;102836.75;;;2.57;100.00
19845;BME280;10083;51.038;7.012;2024-01-16T04:10:36;102850.66;;;2.52;100.00
19845;BME280;10083;51.038;7.012;2024-01-16T04:13:13;102832.38;;;2.58;100.00
19845;BME280;10083;51.038;7.012;2024-01-16T04:15:50;102841.47;;;2.44;100.00
19845;BME280;10083;51.038;7.012;2024-01-16T04:18:18;102826.97;;;2.55;100.00
19845;BME280;10083;51.038;7.012;2024-01-16T04:20:49;102852.81;;;2.41;100.00
19845;BME280;10083;51.038;7.012;2024-01-16T04:23:24;102831.88;;;2.46;100.00
19845;BME280;10083;51.038;7.012;2024-01-16T04:25:52;102836.88;;;2.40;100.00
19845;BME280;10083;51.038;7.012;2024-01-16T04:28:37;102841.09;;;2.35;100.00
19845;BME280;10083;51.038;7.012;2024-01-16T04:31:10;102839.53;;;2.40;100.00
19845;BME280;10083;51.038;7.012;2024-01-16T04:33:45;102835.34;;;2.45;100.00
19845;BME280;10083;51.038;7.012;2024-01-16T04:36:15;102852.38;;;2.31;100.00
19845;BME280;10083;51.038;7.012;2024-01-16T04:38:43;102836.38;;;2.48;100.00
19845;BME280;10083;51.038;7.012;2024-01-16T04:41:11;102845.78;;;2.42;100.00
19845;BME280;10083;51.038;7.012;2024-01-16T04:43:40;102846.81;;;2.24;100.00
19845;BME280;10083;51.038;7.012;2024-01-16T04:46:12;102832.47;;;2.39;100.00
19845;BME280;10083;51.038;7.012;2024-01-16T04:48:47;102840.19;;;2.34;100.00
19845;BME280;10083;51.038;7.012;2024-01-16T04:51:16;102854.03;;;2.28;100.00
19845;BME280;10083;51.038;7.012;2024-01-16T04:53:44;102846.75;;;2.44;100.00
19845;BME280;10083;51.038;7.012;2024-01-16T04:56:18;102861.38;;;2.36;100.00
19845;BME280;10083;51.038;7.012;2024-01-16T04:59:00;102847.97;;;2.31;100.00
19845;BME280;10083;51.038;7.012;2024-01-16T05:01:28;102849.25;;;2.41;100.00
19845;BME280;10083;51.038;7.012;2024-01-16T05:03:56;102847.31;;;2.37;100.00
19845;BME280;10083;51.038;7.012;2024-01-16T05:06:26;102847.31;;;2.37;100.00
19845;BME280;10083;51.038;7.012;2024-01-16T05:09:06;102848.94;;;2.33;100.00
19845;BME280;10083;51.038;7.012;2024-01-16T05:11:34;102819.81;;;2.52;100.00
19845;BME280;10083;51.038;7.012;2024-01-16T05:14:04;102826.69;;;2.49;100.00
19845;BME280;10083;51.038;7.012;2024-01-16T05:16:32;102828.41;;;2.47;100.00
19845;BME280;10083;51.038;7.012;2024-01-16T05:19:00;102836.44;;;2.50;100.00
19845;BME280;10083;51.038;7.012;2024-01-16T05:21:29;102829.72;;;2.37;100.00
19845;BME280;10083;51.038;7.012;2024-01-16T05:24:01;102836.50;;;2.31;100.00
19845;BME280;10083;51.038;7.012;2024-01-16T05:26:28;102816.13;;;2.49;100.00
19845;BME280;10083;51.038;7.012;2024-01-16T05:28:59;102824.66;;;2.42;100.00
19845;BME280;10083;51.038;7.012;2024-01-16T05:31:28;102803.81;;;2.28;100.00
19845;BME280;10083;51.038;7.012;2024-01-16T05:33:56;102805.41;;;2.25;100.00
19845;BME280;10083;51.038;7.012;2024-01-16T05:36:26;102812.97;;;2.37;100.00
19845;BME280;10083;51.038;7.012;2024-01-16T05:38:55;102814.09;;;2.22;100.00
19845;BME280;10083;51.038;7.012;2024-01-16T05:41:22;102823.72;;;2.20;100.00
19845;BME280;10083;51.038;7.012;2024-01-16T05:43:50;102836.84;;;2.19;100.00
19845;BME280;10083;51.038;7.012;2024-01-16T05:46:19;102827.31;;;2.22;100.00
19845;BME280;10083;51.038;7.012;2024-01-16T05:48:51;102827.78;;;2.12;100.00
19845;BME280;10083;51.038;7.012;2024-01-16T05:51:20;102821.53;;;2.31;100.00
19845;BME280;10083;51.038;7.012;2024-01-16T05:53:51;102830.13;;;2.25;100.00
19845;BME280;10083;51.038;7.012;2024-01-16T05:56:19;102831.34;;;2.34;100.00
19845;BME280;10083;51.038;7.012;2024-01-16T05:58:48;102839.06;;;2.29;100.00
19845;BME280;10083;51.038;7.012;2024-01-16T06:01:18;102838.75;;;2.21;100.00
19845;BME280;10083;51.038;7.012;2024-01-16T06:03:46;102830.34;;;2.32;100.00
19845;BME280;10083;51.038;7.012;2024-01-16T06:06:20;102817.94;;;2.29;100.00
19845;BME280;10083;51.038;7.012;2024-01-16T06:08:50;102822.94;;;2.23;100.00
19845;BME280;10083;51.038;7.012;2024-01-16T06:11:22;102824.56;;;2.40;100.00
19845;BME280;10083;51.038;7.012;2024-01-16T06:13:56;102831.28;;;2.32;100.00
19845;BME280;10083;51.038;7.012;2024-01-16T06:16:24;102834.03;;;2.35;100.00
19845;BME280;10083;51.038;7.012;2024-01-16T06:18:57;102841.22;;;2.38;100.00
19845;BME280;10083;51.038;7.012;2024-01-16T06:21:27;102844.47;;;2.32;100.00
19845;BME280;10083;51.038;7.012;2024-01-16T06:23:55;102845.41;;;2.33;100.00
19845;BME280;10083;51.038;7.012;2024-01-16T06:26:28;102851.59;;;2.33;100.00
19845;BME280;10083;51.038;7.012;2024-01-16T06:29:10;102860.13;;;2.27;100.00
19845;BME280;10083;51.038;7.012;2024-01-16T06:31:39;102882.59;;;2.18;100.00
19845;BME280;10083;51.038;7.012;2024-01-16T06:34:07;102881.03;;;2.21;100.00
19845;BME280;10083;51.038;7.012;2024-01-16T06:36:36;102887.41;;;2.26;100.00
19845;BME280;10083;51.038;7.012;2024-01-16T06:39:04;102889.75;;;2.40;100.00
19845;BME280;10083;51.038;7.012;2024-01-16T06:41:32;102905.97;;;2.28;100.00
19845;BME280;10083;51.038;7.012;2024-01-16T06:44:01;102900.41;;;2.41;100.00
19845;BME280;10083;51.038;7.012;2024-01-16T06:46:29;102916.06;;;2.37;100.00
19845;BME280;10083;51.038;7.012;2024-01-16T06:48:56;102939.09;;;2.20;100.00
19845;BME280;10083;51.038;7.012;2024-01-16T06:51:24;102928.81;;;2.26;100.00
19845;BME280;10083;51.038;7.012;2024-01-16T06:53:53;102919.13;;;2.26;100.00
19845;BME280;10083;51.038;7.012;2024-01-16T06:56:21;102930.81;;;2.12;100.00
19845;BME280;10083;51.038;7.012;2024-01-16T06:58:50;102934.41;;;2.14;100.00
19845;BME280;10083;51.038;7.012;2024-01-16T07:01:19;102940.13;;;2.23;100.00
19845;BME280;10083;51.038;7.012;2024-01-16T07:03:48;102957.31;;;2.33;100.00
19845;BME280;10083;51.038;7.012;2024-01-16T07:06:18;102961.81;;;2.36;100.00
19845;BME280;10083;51.038;7.012;2024-01-16T07:08:46;102968.44;;;2.26;100.00
19845;BME280;10083;51.038;7.012;2024-01-16T07:11:16;102968.44;;;2.26;100.00
19845;BME280;10083;51.038;7.012;2024-01-16T07:13:45;102974.91;;;2.33;100.00
19845;BME280;10083;51.038;7.012;2024-01-16T07:16:13;102975.59;;;2.28;100.00
19845;BME280;10083;51.038;7.012;2024-01-16T07:18:41;102979.06;;;2.27;100.00
19845;BME280;10083;51.038;7.012;2024-01-16T07:21:17;102973.19;;;2.33;100.00
19845;BME280;10083;51.038;7.012;2024-01-16T07:23:45;102981.94;;;2.32;100.00
19845;BME280;10083;51.038;7.012;2024-01-16T07:26:16;102991.41;;;2.46;100.00
19845;BME280;10083;51.038;7.012;2024-01-16T07:28:48;102993.75;;;2.59;100.00
19845;BME280;10083;51.038;7.012;2024-01-16T07:31:16;103010.75;;;2.45;100.00
19845;BME280;10083;51.038;7.012;2024-01-16T07:33:44;103025.66;;;2.43;100.00
19845;BME280;10083;51.038;7.012;2024-01-16T07:36:22;103014.84;;;2.39;100.00
19845;BME280;10083;51.038;7.012;2024-01-16T07:39:01;103018.88;;;2.50;100.00
19845;BME280;10083;51.038;7.012;2024-01-16T07:41:30;103036.25;;;2.45;100.00
19845;BME280;10083;51.038;7.012;2024-01-16T07:43:58;103047.19;;;2.33;100.00
19845;BME280;10083;51.038;7.012;2024-01-16T07:46:29;103060.66;;;2.20;100.00
19845;BME280;10083;51.038;7.012;2024-01-16T07:48:57;103059.50;;;2.33;100.00
19845;BME280;10083;51.038;7.012;2024-01-16T07:51:28;103070.09;;;2.52;100.00
19845;BME280;10083;51.038;7.012;2024-01-16T07:54:05;103086.09;;;2.18;100.00
19845;BME280;10083;51.038;7.012;2024-01-16T07:56:42;103089.13;;;2.25;100.00
19845;BME280;10083;51.038;7.012;2024-01-16T07:59:22;103100.81;;;2.31;100.00
19845;BME280;10083;51.038;7.012;2024-01-16T08:01:53;103107.06;;;2.33;100.00
19845;BME280;10083;51.038;7.012;2024-01-16T08:04:23;103115.31;;;2.39;100.00
19845;BME280;10083;51.038;7.012;2024-01-16T08:06:52;103136.00;;;2.30;100.00
19845;BME280;10083;51.038;7.012;2024-01-16T08:09:24;103128.81;;;2.45;100.00
19845;BME280;10083;51.038;7.012;2024-01-16T08:12:04;103135.47;;;2.37;100.00
19845;BME280;10083;51.038;7.012;2024-01-16T08:14:37;103157.44;;;2.18;100.00
19845;BME280;10083;51.038;7.012;2024-01-16T08:17:05;103163.63;;;2.36;100.00
19845;BME280;10083;51.038;7.012;2024-01-16T08:19:34;103149.34;;;2.50;100.00
19845;BME280;10083;51.038;7.012;2024-01-16T08:22:02;103171.94;;;2.44;100.00
19845;BME280;10083;51.038;7.012;2024-01-16T08:24:31;103182.81;;;2.50;100.00
19845;BME280;10083;51.038;7.012;2024-01-16T08:27:07;103184.31;;;2.45;100.00
19845;BME280;10083;51.038;7.012;2024-01-16T08:29:41;103200.50;;;2.51;100.00
19845;BME280;10083;51.038;7.012;2024-01-16T08:32:17;103208.25;;;2.65;100.00
19845;BME280;10083;51.038;7.012;2024-01-16T08:34:50;103219.28;;;2.57;100.00
19845;BME280;10083;51.038;7.012;2024-01-16T08:37:18;103236.69;;;2.52;100.00
19845;BME280;10083;51.038;7.012;2024-01-16T08:39:48;103243.09;;;2.57;100.00
19845;BME280;10083;51.038;7.012;2024-01-16T08:42:29;103248.00;;;2.49;100.00
19845;BME280;10083;51.038;7.012;2024-01-16T08:45:09;103253.75;;;2.41;100.00
19845;BME280;10083;51.038;7.012;2024-01-16T08:47:45;103265.47;;;2.46;100.00
19845;BME280;10083;51.038;7.012;2024-01-16T08:50:20;103261.09;;;2.64;100.00
19845;BME280;10083;51.038;7.012;2024-01-16T08:52:57;103268.94;;;2.62;100.00
19845;BME280;10083;51.038;7.012;2024-01-16T08:55:31;103275.13;;;2.63;100.00
19845;BME280;10083;51.038;7.012;2024-01-16T08:58:05;103290.31;;;2.49;100.00
19845;BME280;10083;51.038;7.012;2024-01-16T09:00:45;103269.38;;;2.89;100.00
19845;BME280;10083;51.038;7.012;2024-01-16T09:03:30;103297.81;;;2.58;100.00
19845;BME280;10083;51.038;7.012;2024-01-16T09:06:10;103289.81;;;2.74;100.00
19845;BME280;10083;51.038;7.012;2024-01-16T09:08:42;103293.56;;;2.79;100.00
19845;BME280;10083;51.038;7.012;2024-01-16T09:11:18;103301.72;;;2.66;100.00
19845;BME280;10083;51.038;7.012;2024-01-16T09:13:54;103286.09;;;2.70;100.00
19845;BME280;10083;51.038;7.012;2024-01-16T09:16:35;103295.31;;;2.79;100.00
19845;BME280;10083;51.038;7.012;2024-01-16T09:19:11;103313.53;;;2.72;100.00
19845;BME280;10083;51.038;7.012;2024-01-16T09:21:47;103320.72;;;2.75;100.00
19845;BME280;10083;51.038;7.012;2024-01-16T09:24:16;103308.97;;;3.05;100.00
19845;BME280;10083;51.038;7.012;2024-01-16T09:26:45;103319.97;;;2.95;100.00
19845;BME280;10083;51.038;7.012;2024-01-16T09:29:18;103343.09;;;2.82;100.00
19845;BME280;10083;51.038;7.012;2024-01-16T09:31:48;103332.34;;;2.96;100.00
19845;BME280;10083;51.038;7.012;2024-01-16T09:34:20;103334.25;;;2.99;100.00
19845;BME280;10083;51.038;7.012;2024-01-16T09:36:49;103343.16;;;2.83;100.00
19845;BME280;10083;51.038;7.012;2024-01-16T09:39:17;103348.16;;;2.95;100.00
19845;BME280;10083;51.038;7.012;2024-01-16T09:41:50;103336.91;;;2.99;100.00
19845;BME280;10083;51.038;7.012;2024-01-16T09:44:23;103335.38;;;3.04;100.00
19845;BME280;10083;51.038;7.012;2024-01-16T09:46:58;103358.28;;;3.03;100.00
19845;BME280;10083;51.038;7.012;2024-01-16T09:49:27;103354.19;;;2.92;100.00
19845;BME280;10083;51.038;7.012;2024-01-16T09:52:01;103341.03;;;3.11;100.00
19845;BME280;10083;51.038;7.012;2024-01-16T09:54:37;103340.28;;;3.14;100.00
19845;BME280;10083;51.038;7.012;2024-01-16T09:57:06;103334.03;;;3.31;100.00
19845;BME280;10083;51.038;7.012;2024-01-16T09:59:40;103338.28;;;3.28;100.00
19845;BME280;10083;51.038;7.012;2024-01-16T10:02:11;103347.31;;;3.13;100.00
19845;BME280;10083;51.038;7.012;2024-01-16T10:04:48;103362.66;;;2.85;100.00
19845;BME280;10083;51.038;7.012;2024-01-16T10:07:20;103357.25;;;3.00;100.00
19845;BME280;10083;51.038;7.012;2024-01-16T10:09:56;103354.28;;;2.94;100.00
19845;BME280;10083;51.038;7.012;2024-01-16T10:12:25;103347.72;;;3.03;100.00
19845;BME280;10083;51.038;7.012;2024-01-16T10:14:55;103360.47;;;2.94;100.00
19845;BME280;10083;51.038;7.012;2024-01-16T10:17:35;103362.38;;;2.97;100.00
19845;BME280;10083;51.038;7.012;2024-01-16T10:20:04;103357.97;;;2.97;100.00
19845;BME280;10083;51.038;7.012;2024-01-16T10:22:35;103350.41;;;2.87;100.00
19845;BME280;10083;51.038;7.012;2024-01-16T10:25:09;103329.69;;;3.14;100.00
19845;BME280;10083;51.038;7.012;2024-01-16T10:27:38;103341.28;;;2.98;100.00
19845;BME280;10083;51.038;7.012;2024-01-16T10:30:09;103339.00;;;2.88;100.00
19845;BME280;10083;51.038;7.012;2024-01-16T10:32:46;103337.25;;;3.06;100.00
19845;BME280;10083;51.038;7.012;2024-01-16T10:35:15;103345.56;;;2.96;100.00
19845;BME280;10083;51.038;7.012;2024-01-16T10:37:45;103340.50;;;3.01;100.00
19845;BME280;10083;51.038;7.012;2024-01-16T10:40:17;103325.53;;;3.19;100.00
19845;BME280;10083;51.038;7.012;2024-01-16T10:42:46;103325.72;;;3.04;100.00
19845;BME280;10083;51.038;7.012;2024-01-16T10:45:19;103321.75;;;3.14;100.00
19845;BME280;10083;51.038;7.012;2024-01-16T10:47:49;103311.50;;;3.39;100.00
19845;BME280;10083;51.038;7.012;2024-01-16T10:50:17;103323.09;;;3.24;100.00
19845;BME280;10083;51.038;7.012;2024-01-16T10:52:50;103305.75;;;3.48;100.00
19845;BME280;10083;51.038;7.012;2024-01-16T10:55:21;103298.13;;;3.55;100.00
19845;BME280;10083;51.038;7.012;2024-01-16T10:57:53;103294.59;;;3.74;100.00
19845;BME280;10083;51.038;7.012;2024-01-16T11:00:41;103286.81;;;3.98;100.00
19845;BME280;10083;51.038;7.012;2024-01-16T11:03:25;103243.31;;;4.55;100.00
19845;BME280;10083;51.038;7.012;2024-01-16T11:05:57;103239.78;;;4.34;100.00
19845;BME280;10083;51.038;7.012;2024-01-16T11:08:26;103226.78;;;4.83;100.00
19845;BME280;10083;51.038;7.012;2024-01-16T11:11:00;103223.41;;;4.87;100.00
19845;BME280;10083;51.038;7.012;2024-01-16T11:13:31;103242.06;;;4.68;100.00
19845;BME280;10083;51.038;7.012;2024-01-16T11:16:02;103213.47;;;5.05;100.00
19845;BME280;10083;51.038;7.012;2024-01-16T11:18:34;103223.03;;;5.00;100.00
19845;BME280;10083;51.038;7.012;2024-01-16T11:21:04;103256.63;;;4.15;100.00
19845;BME280;10083;51.038;7.012;2024-01-16T11:23:32;103262.09;;;4.39;100.00
19845;BME280;10083;51.038;7.012;2024-01-16T11:26:01;103271.28;;;4.26;100.00
19845;BME280;10083;51.038;7.012;2024-01-16T11:28:51;103294.97;;;3.83;100.00
19845;BME280;10083;51.038;7.012;2024-01-16T11:31:35;103312.56;;;3.81;100.00
19845;BME280;10083;51.038;7.012;2024-01-16T11:34:03;103338.69;;;3.54;100.00
19845;BME280;10083;51.038;7.012;2024-01-16T11:36:52;103354.22;;;3.47;100.00
19845;BME280;10083;51.038;7.012;2024-01-16T11:39:22;103362.44;;;3.53;100.00
19845;BME280;10083;51.038;7.012;2024-01-16T11:41:55;103380.28;;;3.20;100.00
19845;BME280;10083;51.038;7.012;2024-01-16T11:44:43;103385.81;;;3.25;100.00
19845;BME280;10083;51.038;7.012;2024-01-16T11:47:23;103392.47;;;3.16;100.00
19845;BME280;10083;51.038;7.012;2024-01-16T11:49:51;103400.69;;;3.40;100.00
19845;BME280;10083;51.038;7.012;2024-01-16T11:52:44;103355.38;;;3.90;100.00
19845;BME280;10083;51.038;7.012;2024-01-16T11:55:28;103330.66;;;4.30;100.00
19845;BME280;10083;51.038;7.012;2024-01-16T11:58:20;103285.31;;;4.87;100.00
19845;BME280;10083;51.038;7.012;2024-01-16T12:00:54;103207.81;;;5.89;100.00
19845;BME280;10083;51.038;7.012;2024-01-16T12:03:29;103102.41;;;6.75;100.00
19845;BME280;10083;51.038;7.012;2024-01-16T12:06:03;103048.34;;;6.48;100.00
19845;BME280;10083;51.038;7.012;2024-01-16T12:08:33;103109.00;;;5.28;100.00
19845;BME280;10083;51.038;7.012;2024-01-16T12:11:04;103153.66;;;5.38;100.00
19845;BME280;10083;51.038;7.012;2024-01-16T12:13:34;103173.59;;;5.04;100.00
19845;BME280;10083;51.038;7.012;2024-01-16T12:16:11;103146.69;;;4.94;100.00
19845;BME280;10083;51.038;7.012;2024-01-16T12:18:41;103183.91;;;4.51;100.00
19845;BME280;10083;51.038;7.012;2024-01-16T12:21:09;103247.16;;;3.80;100.00
19845;BME280;10083;51.038;7.012;2024-01-16T12:23:44;103193.94;;;5.27;100.00
19845;BME280;10083;51.038;7.012;2024-01-16T12:26:21;103185.84;;;4.55;100.00
19845;BME280;10083;51.038;7.012;2024-01-16T12:29:02;103184.78;;;4.95;100.00
19845;BME280;10083;51.038;7.012;2024-01-16T12:31:32;103150.09;;;4.90;100.00
19845;BME280;10083;51.038;7.012;2024-01-16T12:34:09;103113.31;;;5.75;100.00
19845;BME280;10083;51.038;7.012;2024-01-16T12:36:37;103074.78;;;4.88;100.00
19845;BME280;10083;51.038;7.012;2024-01-16T12:39:10;103115.59;;;4.46;100.00
19845;BME280;10083;51.038;7.012;2024-01-16T12:41:42;103149.66;;;4.80;100.00
19845;BME280;10083;51.038;7.012;2024-01-16T12:44:13;103146.28;;;6.04;100.00
19845;BME280;10083;51.038;7.012;2024-01-16T12:46:43;103069.72;;;5.70;100.00
19845;BME280;10083;51.038;7.012;2024-01-16T12:49:21;103111.69;;;5.05;100.00
19845;BME280;10083;51.038;7.012;2024-01-16T12:51:52;103016.50;;;7.46;100.00
19845;BME280;10083;51.038;7.012;2024-01-16T12:54:44;102785.28;;;8.22;100.00
19845;BME280;10083;51.038;7.012;2024-01-16T12:57:18;102796.72;;;7.32;100.00
19845;BME280;10083;51.038;7.012;2024-01-16T12:59:47;102666.03;;;8.73;100.00
19845;BME280;10083;51.038;7.012;2024-01-16T13:02:21;102751.66;;;7.43;100.00
19845;BME280;10083;51.038;7.012;2024-01-16T13:05:08;102635.72;;;10.25;100.00
19845;BME280;10083;51.038;7.012;2024-01-16T13:07:39;102550.94;;;9.26;100.00
19845;BME280;10083;51.038;7.012;2024-01-16T13:10:08;102620.75;;;8.82;100.00
19845;BME280;10083;51.038;7.012;2024-01-16T13:12:37;102590.09;;;9.22;100.00
19845;BME280;10083;51.038;7.012;2024-01-16T13:15:06;102484.69;;;8.97;100.00
19845;BME280;10083;51.038;7.012;2024-01-16T13:17:33;102634.03;;;8.78;100.00